Impacts TAF Board INFO
FOR SITUATIONAL AWARENESS. NOT TO BE USED FOR FLIGHT PLANNING PURPOSES.
IDs:

KORD - Chicago/O'Hare Intl, IL, US

Issued at 1135 UTC 22 Feb 2018
Updated at 1429 UTC 22 Feb 2018
Potential Impact None Slight Moderate High
Time1351Z 22/15Z 22/16Z 22/17Z 22/18Z 22/19Z 22/20Z 22/21Z 22/22Z 22/23Z 23/00Z 23/01Z 23/02Z 23/03Z>>
Type OBS PRVL PRVL PRVL PRVL PRVL PRVL PRVL PRVL PRVL PRVL PRVL PRVL PRVL
VIS 10 >6 >6 >6 >6 >6 >6 >6 >6 >6 >6 >6 >6 >6
CIG 110 120 120 25 25 25 25 25 25 25 25 25 25 15
Cover OVC OVC OVC OVC OVC OVC OVC OVC OVC OVC OVC OVC OVC OVC
FltCat VFR VFR VFR MVFR MVFR MVFR MVFR MVFR MVFR MVFR MVFR MVFR MVFR MVFR
WX -- -- -- -- -- -- -- -- -- -- -- -- -- VCSH
WDir 60 50 50 70 70 70 70 70 70 70 70 70 70 120
WSpd 11 10 10 13 13 13 13 13 13 13 13 13 13 12
WGst -- -- -- -- -- -- -- -- -- -- -- -- -- --

Raw TAF
KORD 221135Z 2212/2318 05010KT P6SM SCT025 BKN120 OVC200
  FM221700 07013KT P6SM SCT015 BKN025 OVC050
  FM230300 12012KT P6SM VCSH SCT008 OVC015
  FM230700 14008KT 4SM -RA BR SCT004 OVC008
  FM231400 21009KT 5SM -RA BR OVC008
  FM231700 26012G18KT P6SM BKN012


Raw METAR
KORD 221351Z 06011KT 10SM BKN110 OVC180 01/M03 A3055 RMK AO2 SLP352 T00111028
KORD 221251Z 05012KT 10SM BKN120 OVC170 01/M03 A3054 RMK AO2 SLP349 T00061028
KORD 221151Z 04011KT 10SM SCT025 BKN120 OVC250 01/M03 A3054 RMK AO2 SLP349 T00061033 10006 21017 55000

METAR Board
Radar Display
Forecast Discussion

FOR SITUATIONAL AWARENESS. NOT TO BE USED FOR FLIGHT PLANNING PURPOSES.